Terminal Aerodrome Forecast
Issued by NWS Wilmington, NC

Home | Current Version | Previous Version | Text Only | Print | Product List | Glossary On
Versions: 1 2 3 4 5 6 7 8 9 10 11 12 13 14 15 16 17 18 19 20 21 22
000
FTUS42 KILM 311700
TAFILM
TAF
KILM 311725Z 3118/0118 03011G16KT P6SM SKC
     FM312300 35004KT P6SM SCT040
     FM010600 VRB03KT P6SM SCT035 BKN080
     FM011700 26010KT P6SM VCSH BKN040=

USA.gov is the U.S. government's official web portal to all federal, state and local government web resources and services.